createdAt,value
2023-04-18T00:02:19.631Z,20.20
2023-04-18T00:04:50.683Z,23.73
2023-04-18T00:07:20.268Z,31.38
2023-04-18T00:09:50.054Z,24.58
2023-04-18T00:12:19.350Z,24.45
2023-04-18T00:14:50.771Z,21.23
2023-04-18T00:17:20.716Z,24.48
2023-04-18T00:19:52.022Z,29.30
2023-04-18T00:22:22.873Z,22.45
2023-04-18T00:27:22.306Z,26.70
2023-04-18T00:29:53.397Z,25.27
2023-04-18T00:32:23.007Z,25.33
2023-04-18T00:34:52.727Z,25.75
2023-04-18T00:37:22.196Z,26.95
2023-04-18T00:39:54.105Z,25.80
2023-04-18T00:42:24.697Z,28.17
2023-04-18T00:47:24.827Z,26.83
2023-04-18T00:49:55.270Z,28.08
2023-04-18T00:52:27.439Z,29.20
2023-04-18T00:54:57.876Z,26.42
2023-04-18T00:57:27.347Z,27.30
2023-04-18T00:59:58.729Z,25.50
2023-04-18T01:05:01.805Z,22.85
2023-04-18T01:07:33.823Z,25.73
2023-04-18T01:10:04.420Z,23.10
2023-04-18T01:12:33.659Z,25.67
2023-04-18T01:15:06.012Z,26.70
2023-04-18T01:17:36.030Z,26.23
2023-04-18T01:20:06.826Z,29.38
2023-04-18T01:22:36.152Z,26.40
2023-04-18T01:25:11.535Z,32.72
2023-04-18T01:27:40.953Z,31.63
2023-04-18T01:30:11.956Z,29.55
2023-04-18T01:32:41.499Z,29.48
2023-04-18T01:35:11.946Z,29.10
2023-04-18T01:37:41.568Z,31.90
2023-04-18T01:40:14.182Z,27.95
2023-04-18T01:42:43.564Z,28.95
2023-04-18T01:45:14.465Z,24.08
2023-04-18T01:47:44.407Z,28.23
2023-04-18T01:50:14.632Z,29.70
2023-04-18T01:52:43.934Z,28.52
2023-04-18T01:55:15.460Z,25.08
2023-04-18T01:57:44.854Z,25.50
2023-04-18T02:00:16.502Z,27.97
2023-04-18T02:05:15.518Z,25.67
2023-04-18T02:07:44.828Z,24.92
2023-04-18T02:10:17.074Z,28.92
2023-04-18T02:12:46.475Z,25.25
2023-04-18T02:15:16.237Z,25.23
2023-04-18T02:17:45.956Z,27.13
2023-04-18T02:20:16.043Z,26.90
2023-04-18T02:22:45.758Z,24.35
2023-04-18T02:25:16.852Z,28.87
2023-04-18T02:27:46.136Z,25.92
2023-04-18T02:30:16.790Z,29.70
2023-04-18T02:32:46.225Z,36.45
2023-04-18T02:35:15.917Z,29.42
2023-04-18T02:37:45.459Z,29.98
2023-04-18T02:40:16.924Z,27.80
2023-04-18T02:42:46.607Z,33.08
2023-04-18T02:45:16.516Z,26.20
2023-04-18T02:47:54.792Z,30.73
2023-04-18T02:50:27.289Z,27.33
2023-04-18T02:52:57.371Z,27.48
2023-04-18T02:55:29.062Z,28.20
2023-04-18T02:57:58.873Z,31.02
2023-04-18T03:00:28.738Z,27.42
2023-04-18T03:02:58.261Z,28.10
2023-04-18T03:05:28.176Z,28.55
2023-04-18T03:07:57.575Z,29.85
2023-04-18T03:10:28.669Z,29.90
2023-04-18T03:12:58.432Z,28.45
2023-04-18T03:15:31.317Z,25.02
2023-04-18T03:18:00.839Z,27.10
2023-04-18T03:20:31.172Z,24.67
2023-04-18T03:23:00.663Z,21.92
2023-04-18T03:25:32.279Z,28.92
2023-04-18T03:28:01.882Z,29.30
2023-04-18T03:30:32.089Z,25.08
2023-04-18T03:33:03.065Z,27.13
2023-04-18T03:35:33.326Z,24.58
2023-04-18T03:38:02.576Z,29.20
2023-04-18T03:40:33.742Z,24.50
2023-04-18T03:43:03.513Z,24.65
2023-04-18T03:45:33.623Z,26.40
2023-04-18T03:48:03.112Z,24.83
2023-04-18T03:50:32.719Z,22.80
2023-04-18T03:53:02.082Z,30.98
2023-04-18T03:55:33.778Z,29.70
2023-04-18T03:58:03.054Z,27.80
2023-04-18T04:00:33.104Z,30.02
2023-04-18T04:03:02.811Z,28.38
2023-04-18T04:05:32.840Z,27.13
2023-04-18T04:08:02.186Z,28.55
2023-04-18T04:10:33.391Z,27.15
2023-04-18T04:13:02.800Z,32.03
2023-04-18T04:15:33.039Z,26.38
2023-04-18T04:18:02.387Z,28.10
2023-04-18T04:20:32.498Z,23.77
2023-04-18T04:23:02.360Z,25.60
2023-04-18T04:25:34.175Z,26.08
2023-04-18T04:28:03.501Z,22.83
2023-04-18T04:30:33.834Z,30.15
2023-04-18T04:33:03.686Z,22.98
2023-04-18T04:35:35.048Z,23.60
2023-04-18T04:38:04.782Z,26.63
2023-04-18T04:40:35.836Z,27.15
2023-04-18T04:43:05.205Z,29.10
2023-04-18T04:45:35.357Z,27.27
2023-04-18T04:48:05.172Z,28.08
2023-04-18T04:50:38.227Z,24.77
2023-04-18T04:53:08.451Z,26.50
2023-04-18T04:55:40.009Z,22.25
2023-04-18T04:58:09.374Z,26.63
2023-04-18T05:00:39.530Z,28.37
2023-04-18T05:03:09.275Z,27.73
2023-04-18T05:05:39.361Z,24.40
2023-04-18T05:08:08.797Z,28.63
2023-04-18T05:10:40.371Z,30.33
2023-04-18T05:15:39.555Z,29.13
2023-04-18T05:18:09.047Z,23.70
2023-04-18T05:20:38.698Z,22.58
2023-04-18T05:23:08.188Z,27.20
2023-04-18T05:25:38.518Z,24.50
2023-04-18T05:28:09.771Z,26.55
2023-04-18T05:30:40.084Z,25.13
2023-04-18T05:33:09.345Z,24.98
2023-04-18T05:35:39.175Z,21.45
2023-04-18T05:38:08.458Z,22.98
2023-04-18T05:40:38.175Z,23.55
2023-04-18T05:43:09.721Z,20.95
2023-04-18T05:45:39.859Z,28.25
2023-04-18T05:48:09.257Z,17.88
2023-04-18T05:50:39.102Z,20.88
2023-04-18T05:53:08.661Z,22.65
2023-04-18T05:55:40.708Z,23.13
2023-04-18T05:58:11.417Z,26.45
2023-04-18T06:00:41.047Z,19.48
2023-04-18T06:03:11.292Z,22.92
2023-04-18T06:05:41.674Z,21.38
2023-04-18T06:08:11.451Z,22.80
2023-04-18T06:10:41.532Z,23.75
2023-04-18T06:13:12.599Z,19.80
2023-04-18T06:15:42.357Z,23.95
2023-04-18T06:18:11.752Z,19.23
2023-04-18T06:20:42.404Z,22.38
2023-04-18T06:23:12.085Z,20.52
2023-04-18T06:25:43.358Z,22.25
2023-04-18T06:30:43.424Z,24.85
2023-04-18T06:33:12.658Z,16.67
2023-04-18T06:35:43.358Z,20.73
2023-04-18T06:38:13.070Z,20.65
2023-04-18T06:40:42.796Z,17.43
2023-04-18T06:43:12.105Z,18.10
2023-04-18T06:45:43.268Z,16.17
2023-04-18T06:48:12.678Z,16.42
2023-04-18T06:50:42.809Z,16.67
2023-04-18T06:53:12.816Z,14.25
2023-04-18T06:55:43.156Z,14.85
2023-04-18T06:58:13.985Z,18.60
2023-04-18T07:00:47.937Z,15.82
2023-04-18T07:03:17.297Z,13.75
2023-04-18T07:05:47.203Z,16.27
2023-04-18T07:08:16.453Z,16.85
2023-04-18T07:10:46.938Z,14.95
2023-04-18T07:13:16.374Z,13.65
2023-04-18T07:15:47.814Z,18.83
2023-04-18T07:18:30.245Z,15.00
2023-04-18T07:21:07.934Z,11.40
2023-04-18T07:23:37.676Z,12.68
2023-04-18T07:26:07.413Z,14.52
2023-04-18T07:28:36.861Z,13.63
2023-04-18T07:31:11.612Z,14.40
2023-04-18T07:33:41.130Z,13.10
2023-04-18T07:36:11.126Z,14.85
2023-04-18T07:38:40.990Z,14.88
2023-04-18T07:41:10.951Z,16.85
2023-04-18T07:43:40.760Z,15.70
2023-04-18T07:46:12.224Z,18.27
2023-04-18T07:48:41.637Z,11.75
2023-04-18T07:51:11.386Z,11.75
2023-04-18T07:53:41.299Z,11.20
2023-04-18T07:56:12.716Z,12.85
2023-04-18T07:58:42.174Z,16.27
2023-04-18T08:01:15.542Z,12.75
2023-04-18T08:03:45.237Z,16.58
2023-04-18T08:06:15.294Z,13.65
2023-04-18T08:08:44.938Z,16.83
2023-04-18T08:11:14.824Z,13.40
2023-04-18T08:13:44.177Z,14.13
2023-04-18T08:16:17.363Z,12.03
2023-04-18T08:18:46.933Z,16.17
2023-04-18T08:21:16.695Z,12.73
2023-04-18T08:23:46.204Z,13.00
2023-04-18T08:26:16.047Z,12.20
2023-04-18T08:28:46.590Z,13.20
2023-04-18T08:31:17.864Z,12.27
2023-04-18T08:33:47.228Z,15.60
2023-04-18T08:36:16.809Z,12.73
2023-04-18T08:38:46.030Z,15.20
2023-04-18T08:41:17.596Z,15.70
2023-04-18T08:43:49.992Z,13.68
2023-04-18T08:46:21.855Z,11.05
2023-04-18T08:48:51.651Z,14.50
2023-04-18T08:51:22.190Z,12.45
2023-04-18T08:53:51.909Z,12.35
2023-04-18T08:56:22.618Z,10.35
2023-04-18T08:58:52.582Z,12.77
2023-04-18T09:01:24.986Z,12.77
2023-04-18T09:03:55.563Z,12.00
2023-04-18T09:09:00.527Z,15.63
2023-04-18T09:11:34.645Z,9.70
2023-04-18T09:14:03.940Z,12.77
2023-04-18T09:16:47.577Z,10.23
2023-04-18T09:19:19.210Z,12.93
2023-04-18T09:21:58.269Z,11.75
2023-04-18T09:24:28.946Z,13.20
2023-04-18T09:27:00.035Z,10.05
2023-04-18T09:29:47.149Z,14.50
2023-04-18T09:32:33.545Z,11.32
2023-04-18T09:35:05.683Z,11.25
2023-04-18T09:37:35.620Z,9.98
2023-04-18T09:40:19.621Z,10.88
2023-04-18T09:42:49.654Z,12.50
2023-04-18T09:45:18.889Z,11.40
2023-04-18T09:47:50.387Z,10.83
2023-04-18T09:50:21.025Z,10.73
2023-04-18T09:52:51.000Z,11.68
2023-04-18T09:55:21.243Z,9.85
2023-04-18T09:57:51.836Z,11.02
2023-04-18T10:00:25.594Z,11.23
2023-04-18T10:02:59.430Z,10.65
2023-04-18T10:05:29.968Z,10.40
2023-04-18T10:08:00.168Z,14.73
2023-04-18T10:10:29.739Z,12.82
2023-04-18T10:13:01.330Z,11.52
2023-04-18T10:18:06.086Z,11.32
2023-04-18T10:20:36.413Z,15.70
2023-04-18T10:23:37.012Z,13.43
2023-04-18T10:26:07.410Z,11.07
2023-04-18T10:28:55.101Z,13.77
2023-04-18T10:31:26.176Z,13.05
2023-04-18T10:36:32.668Z,16.80
2023-04-18T10:39:04.697Z,13.23
2023-04-18T10:41:35.084Z,13.40
2023-04-18T10:47:21.693Z,14.40
2023-04-18T10:50:01.562Z,15.77
2023-04-18T10:52:31.888Z,17.05
2023-04-18T10:55:11.705Z,16.42
2023-04-18T10:57:42.576Z,14.02
2023-04-18T11:00:15.019Z,16.48
2023-04-18T11:02:52.602Z,14.77
2023-04-18T11:05:26.431Z,14.20
2023-04-18T11:07:56.320Z,13.68
2023-04-18T11:10:27.159Z,13.57
2023-04-18T11:12:57.704Z,14.02
2023-04-18T11:15:29.691Z,13.57
2023-04-18T11:18:02.468Z,16.60
2023-04-18T11:20:47.557Z,13.60
2023-04-18T11:23:20.899Z,11.95
2023-04-18T11:25:52.218Z,13.20
2023-04-18T11:28:25.204Z,12.73
2023-04-18T11:30:59.106Z,11.32
2023-04-18T11:33:30.670Z,12.68
2023-04-18T11:36:01.936Z,13.27
2023-04-18T11:38:32.384Z,11.32
2023-04-18T11:41:04.708Z,12.43
2023-04-18T11:43:34.837Z,14.68
2023-04-18T11:46:04.612Z,12.50
2023-04-18T11:48:37.815Z,16.02
2023-04-18T11:51:09.607Z,13.10
2023-04-18T11:53:40.598Z,13.52
2023-04-18T11:56:10.090Z,15.02
2023-04-18T11:58:39.733Z,16.40
2023-04-18T12:01:19.837Z,18.30
2023-04-18T12:04:02.978Z,14.80
2023-04-18T12:06:48.881Z,15.68
2023-04-18T12:09:19.000Z,15.30
2023-04-18T12:11:59.848Z,13.38
2023-04-18T12:14:30.353Z,13.30
2023-04-18T12:16:59.662Z,12.90
2023-04-18T12:19:30.818Z,14.85
2023-04-18T12:22:03.384Z,12.95
2023-04-18T12:24:33.441Z,11.32
2023-04-18T12:27:02.913Z,14.10
2023-04-18T12:29:32.986Z,13.52
2023-04-18T12:32:02.650Z,13.82
2023-04-18T12:34:32.336Z,16.02
2023-04-18T12:37:04.685Z,14.15
2023-04-18T12:39:34.659Z,10.63
2023-04-18T12:42:04.029Z,12.77
2023-04-18T12:44:33.999Z,11.80
2023-04-18T12:47:03.384Z,17.40
2023-04-18T12:49:33.997Z,12.55
2023-04-18T12:52:05.012Z,11.57
2023-04-18T12:54:37.829Z,12.63
2023-04-18T12:57:07.612Z,15.35
2023-04-18T12:59:37.354Z,12.57
2023-04-18T13:02:07.143Z,14.90
2023-04-18T13:04:37.395Z,16.08
2023-04-18T13:07:08.229Z,12.68
2023-04-18T13:09:38.710Z,15.00
2023-04-18T13:12:09.003Z,13.77
2023-04-18T13:17:07.716Z,12.52
2023-04-18T13:19:37.922Z,13.60
2023-04-18T13:22:08.735Z,13.52
2023-04-18T13:24:39.028Z,12.45
2023-04-18T13:27:35.768Z,14.35
2023-04-18T13:30:08.612Z,17.08
2023-04-18T13:32:39.408Z,16.60
2023-04-18T13:35:09.817Z,13.90
2023-04-18T13:37:41.196Z,13.65
2023-04-18T13:40:11.477Z,13.63
2023-04-18T13:42:41.338Z,13.33
2023-04-18T13:45:11.770Z,9.65
2023-04-18T13:47:41.275Z,10.30
2023-04-18T13:50:11.700Z,17.07
2023-04-18T13:52:42.507Z,12.93
2023-04-18T13:55:12.662Z,12.30
2023-04-18T13:57:41.884Z,10.63
2023-04-18T14:00:14.465Z,16.83
2023-04-18T14:02:43.867Z,12.85
2023-04-18T14:05:13.588Z,12.57
2023-04-18T14:07:44.800Z,15.52
2023-04-18T14:10:14.471Z,11.10
2023-04-18T14:12:43.921Z,12.52
2023-04-18T14:15:13.924Z,18.52
2023-04-18T14:17:45.547Z,13.43
2023-04-18T14:20:19.644Z,14.98
2023-04-18T14:22:53.153Z,12.52
2023-04-18T14:25:23.105Z,12.00
2023-04-18T14:28:08.920Z,14.88
2023-04-18T14:30:39.333Z,13.38
2023-04-18T14:33:09.787Z,12.33
2023-04-18T14:35:39.795Z,12.75
2023-04-18T14:38:11.422Z,13.15
2023-04-18T14:40:41.320Z,13.30
2023-04-18T14:43:10.589Z,11.50
2023-04-18T14:45:40.721Z,9.80
2023-04-18T14:48:10.807Z,16.65
2023-04-18T14:50:41.030Z,14.27
2023-04-18T14:53:12.160Z,13.55
2023-04-18T14:55:41.880Z,12.45
2023-04-18T14:58:11.183Z,11.57
2023-04-18T15:00:41.293Z,13.70
2023-04-18T15:03:11.451Z,13.13
2023-04-18T15:05:43.347Z,11.55
2023-04-18T15:08:14.807Z,11.38
2023-04-18T15:10:44.928Z,11.52
2023-04-18T15:13:14.192Z,9.05
2023-04-18T15:15:44.753Z,15.13
2023-04-18T15:18:14.162Z,14.43
2023-04-18T15:20:43.848Z,11.52
2023-04-18T15:23:15.115Z,9.60
2023-04-18T15:25:46.753Z,12.43
2023-04-18T15:28:16.500Z,11.15
2023-04-18T15:30:46.619Z,10.10
2023-04-18T15:33:17.753Z,6.60
2023-04-18T15:35:47.648Z,8.45
2023-04-18T15:38:18.540Z,8.27
2023-04-18T15:40:48.250Z,8.38
2023-04-18T15:43:18.258Z,9.20
2023-04-18T15:45:47.920Z,13.65
2023-04-18T15:48:17.337Z,11.82
2023-04-18T15:50:52.407Z,10.13
2023-04-18T15:53:23.432Z,9.45
2023-04-18T15:55:54.113Z,9.88
2023-04-18T15:58:24.309Z,10.48
2023-04-18T16:00:54.034Z,9.90
2023-04-18T16:03:24.229Z,9.45
2023-04-18T16:05:54.075Z,10.88
2023-04-18T16:08:24.937Z,5.97
2023-04-18T16:10:54.895Z,8.90
2023-04-18T16:13:24.203Z,8.48
2023-04-18T16:15:53.945Z,8.82
2023-04-18T16:18:23.214Z,5.55
2023-04-18T16:20:53.354Z,5.57
2023-04-18T16:23:24.295Z,11.18
2023-04-18T16:25:55.115Z,8.25
2023-04-18T16:28:24.527Z,4.72
2023-04-18T16:30:55.712Z,8.10
2023-04-18T16:33:26.317Z,5.93
2023-04-18T16:38:29.180Z,13.23
2023-04-18T16:41:00.876Z,10.52
2023-04-18T16:43:31.330Z,6.18
2023-04-18T16:46:00.995Z,7.55
2023-04-18T16:48:30.575Z,9.20
2023-04-18T16:51:00.807Z,6.80
2023-04-18T16:53:31.671Z,9.90
2023-04-18T16:56:01.914Z,6.43
2023-04-18T16:58:31.297Z,6.65
2023-04-18T17:01:02.722Z,9.93
2023-04-18T17:03:32.084Z,7.35
2023-04-18T17:06:02.496Z,7.28
2023-04-18T17:08:34.004Z,6.32
2023-04-18T17:11:03.779Z,8.80
2023-04-18T17:13:33.208Z,6.10
2023-04-18T17:16:02.906Z,8.18
2023-04-18T17:18:32.223Z,10.60
2023-04-18T17:21:02.220Z,9.88
2023-04-18T17:23:33.248Z,8.38
2023-04-18T17:26:03.397Z,10.65
2023-04-18T17:28:32.870Z,9.82
2023-04-18T17:31:02.972Z,8.90
2023-04-18T17:33:32.493Z,7.93
2023-04-18T17:36:03.674Z,15.23
2023-04-18T17:38:35.921Z,9.43
2023-04-18T17:41:06.433Z,8.43
2023-04-18T17:43:35.822Z,8.80
2023-04-18T17:46:05.657Z,6.40
2023-04-18T17:48:35.109Z,14.43
2023-04-18T17:51:05.112Z,8.80
2023-04-18T17:53:36.027Z,15.57
2023-04-18T17:56:06.496Z,9.55
2023-04-18T17:58:35.971Z,11.35
2023-04-18T18:01:06.234Z,10.73
2023-04-18T18:03:36.326Z,11.02
2023-04-18T18:08:37.037Z,10.60
2023-04-18T18:11:07.209Z,10.68
2023-04-18T18:13:37.038Z,8.55
2023-04-18T18:16:07.724Z,8.88
2023-04-18T18:18:37.154Z,8.70
2023-04-18T18:21:06.962Z,8.10
2023-04-18T18:23:38.205Z,7.32
2023-04-18T18:26:09.986Z,9.60
2023-04-18T18:31:08.675Z,7.45
2023-04-18T18:33:38.426Z,11.00
2023-04-18T18:36:08.356Z,12.70
2023-04-18T18:38:39.033Z,17.42
2023-04-18T18:43:37.756Z,10.02
2023-04-18T18:46:07.505Z,9.70
2023-04-18T18:48:39.386Z,11.93
2023-04-18T18:51:09.736Z,9.18
2023-04-18T18:53:40.799Z,14.30
2023-04-18T18:56:10.575Z,5.63
2023-04-18T18:58:40.711Z,7.70
2023-04-18T19:01:11.653Z,12.05
2023-04-18T19:03:41.084Z,10.77
2023-04-18T19:06:11.317Z,7.88
2023-04-18T19:08:42.229Z,7.25
2023-04-18T19:11:12.973Z,10.55
2023-04-18T19:13:42.527Z,10.10
2023-04-18T19:16:12.170Z,8.75
2023-04-18T19:18:41.753Z,9.75
2023-04-18T19:21:11.508Z,9.27
2023-04-18T19:23:42.710Z,8.20
2023-04-18T19:26:12.383Z,11.05
2023-04-18T19:28:41.855Z,10.10
2023-04-18T19:31:12.109Z,12.57
2023-04-18T19:33:41.487Z,10.05
2023-04-18T19:36:11.144Z,9.20
2023-04-18T19:38:42.066Z,11.68
2023-04-18T19:41:11.744Z,6.70
2023-04-18T19:43:42.774Z,7.28
2023-04-18T19:46:13.018Z,7.75
2023-04-18T19:48:42.689Z,10.63
2023-04-18T19:51:12.435Z,6.20
2023-04-18T19:53:43.198Z,13.38
2023-04-18T19:56:14.466Z,14.32
2023-04-18T19:58:46.965Z,9.68
2023-04-18T20:01:17.946Z,11.32
2023-04-18T20:03:47.657Z,12.52
2023-04-18T20:06:18.459Z,8.88
2023-04-18T20:08:49.436Z,16.83
2023-04-18T20:11:19.423Z,9.73
2023-04-18T20:13:48.688Z,11.40
2023-04-18T20:16:19.019Z,12.70
2023-04-18T20:18:49.430Z,10.05
2023-04-18T20:21:19.546Z,7.38
2023-04-18T20:23:50.244Z,6.50
2023-04-18T20:28:49.282Z,9.70
2023-04-18T20:31:20.702Z,8.48
2023-04-18T20:33:50.527Z,5.50
2023-04-18T20:36:20.202Z,8.17
2023-04-18T20:38:50.994Z,8.40
2023-04-18T20:41:24.389Z,8.80
2023-04-18T20:43:53.977Z,7.97
2023-04-18T20:46:23.702Z,5.97
2023-04-18T20:48:53.229Z,7.78
2023-04-18T20:51:23.381Z,9.60
2023-04-18T20:53:54.271Z,9.90
2023-04-18T20:56:24.348Z,6.75
2023-04-18T20:58:53.618Z,12.32
2023-04-18T21:01:23.441Z,6.15
2023-04-18T21:03:53.521Z,11.55
2023-04-18T21:06:23.450Z,9.45
2023-04-18T21:08:54.676Z,11.02
2023-04-18T21:11:24.454Z,10.45
2023-04-18T21:13:53.746Z,10.52
2023-04-18T21:16:24.242Z,9.57
2023-04-18T21:18:54.825Z,9.67
2023-04-18T21:21:24.596Z,6.55
2023-04-18T21:23:55.304Z,11.82
2023-04-18T21:28:55.275Z,8.43
2023-04-18T21:31:25.018Z,12.00
2023-04-18T21:33:55.258Z,7.57
2023-04-18T21:38:56.838Z,13.60
2023-04-18T21:41:27.237Z,12.60
2023-04-18T21:43:56.577Z,8.00
2023-04-18T21:46:26.598Z,8.40
2023-04-18T21:48:56.193Z,6.72
2023-04-18T21:51:27.584Z,7.40
2023-04-18T21:56:29.074Z,10.48
2023-04-18T21:58:58.557Z,3.20
2023-04-18T22:01:28.827Z,8.77
2023-04-18T22:03:58.424Z,6.88
2023-04-18T22:06:28.672Z,7.35
2023-04-18T22:08:59.624Z,7.45
2023-04-18T22:11:29.443Z,7.07
2023-04-18T22:14:00.681Z,6.65
2023-04-18T22:16:30.953Z,4.07
2023-04-18T22:19:01.584Z,11.18
2023-04-18T22:21:31.608Z,6.95
2023-04-18T22:24:02.363Z,10.63
2023-04-18T22:26:32.086Z,11.73
2023-04-18T22:29:01.309Z,8.90
2023-04-18T22:31:31.322Z,6.78
2023-04-18T22:34:00.861Z,9.73
2023-04-18T22:36:31.447Z,9.33
2023-04-18T22:39:02.342Z,6.72
2023-04-18T22:41:32.011Z,10.50
2023-04-18T22:44:01.551Z,7.75
2023-04-18T22:46:33.165Z,11.63
2023-04-18T22:49:02.480Z,3.88
2023-04-18T22:51:32.862Z,5.90
2023-04-18T22:54:03.623Z,15.95
2023-04-18T22:56:33.649Z,9.10
2023-04-18T22:59:03.059Z,8.55
2023-04-18T23:01:33.252Z,8.55
2023-04-18T23:04:02.762Z,5.93
2023-04-18T23:06:33.097Z,7.20
2023-04-18T23:09:05.442Z,11.50
2023-04-18T23:11:35.486Z,6.32
2023-04-18T23:14:05.042Z,9.10
2023-04-18T23:16:34.901Z,4.57
2023-04-18T23:19:04.946Z,4.05
2023-04-18T23:21:35.318Z,6.70
2023-04-18T23:24:06.509Z,6.68
2023-04-18T23:26:36.308Z,9.13
2023-04-18T23:29:05.961Z,7.85
2023-04-18T23:31:35.819Z,10.10
2023-04-18T23:34:05.758Z,13.65
2023-04-18T23:36:36.231Z,10.05
2023-04-18T23:39:07.390Z,8.07
2023-04-18T23:41:37.448Z,7.50
2023-04-18T23:44:07.373Z,5.28
2023-04-18T23:46:37.563Z,5.60
2023-04-18T23:49:06.960Z,8.48
2023-04-18T23:51:37.416Z,5.22
2023-04-18T23:54:08.416Z,10.93
2023-04-18T23:56:38.729Z,8.55
2023-04-18T23:59:08.327Z,11.70
